createdAt,value
2023-04-17T00:03:06.512Z,11.07
2023-04-17T00:08:06.387Z,10.84
2023-04-17T00:13:06.277Z,11.01
2023-04-17T00:18:06.171Z,11.03
2023-04-17T00:23:06.143Z,11.13
2023-04-17T00:28:09.135Z,11.13
2023-04-17T00:33:05.947Z,10.84
2023-04-17T00:38:05.910Z,11.19
2023-04-17T00:43:05.814Z,10.92
2023-04-17T00:48:05.819Z,10.98
2023-04-17T00:53:05.745Z,10.92
2023-04-17T00:58:05.660Z,10.88
2023-04-17T01:03:05.783Z,10.62
2023-04-17T01:08:05.534Z,10.52
2023-04-17T01:13:05.387Z,10.60
2023-04-17T01:18:05.443Z,10.70
2023-04-17T01:23:05.268Z,10.44
2023-04-17T01:28:08.241Z,10.52
2023-04-17T01:33:05.334Z,10.32
2023-04-17T01:38:05.749Z,10.60
2023-04-17T01:43:05.135Z,10.58
2023-04-17T01:48:05.037Z,10.58
2023-04-17T01:53:04.968Z,10.73
2023-04-17T01:58:05.103Z,10.43
2023-04-17T02:03:04.891Z,10.51
2023-04-17T02:08:04.784Z,10.51
2023-04-17T02:13:05.569Z,10.62
2023-04-17T02:18:04.803Z,10.40
2023-04-17T02:23:04.721Z,10.62
2023-04-17T02:28:07.480Z,10.66
2023-04-17T02:33:04.396Z,10.34
2023-04-17T02:38:04.364Z,10.56
2023-04-17T02:43:04.370Z,10.59
2023-04-17T02:48:05.412Z,10.56
2023-04-17T02:53:04.115Z,10.60
2023-04-17T02:58:04.152Z,10.53
2023-04-17T03:03:04.082Z,10.52
2023-04-17T03:08:03.978Z,10.46
2023-04-17T03:13:03.994Z,10.33
2023-04-17T03:18:03.956Z,10.09
2023-04-17T03:23:18.690Z,10.06
2023-04-17T03:28:06.735Z,10.07
2023-04-17T03:33:03.778Z,9.82
2023-04-17T03:38:03.610Z,9.99
2023-04-17T03:43:03.543Z,9.96
2023-04-17T03:48:03.647Z,9.88
2023-04-17T03:53:03.334Z,9.56
2023-04-17T03:58:03.355Z,9.76
2023-04-17T04:03:03.303Z,9.82
2023-04-17T04:08:03.157Z,9.61
2023-04-17T04:13:03.069Z,9.66
2023-04-17T04:18:03.229Z,9.75
2023-04-17T04:23:02.988Z,9.79
2023-04-17T04:28:05.955Z,9.82
2023-04-17T04:33:02.850Z,9.57
2023-04-17T04:38:02.810Z,9.93
2023-04-17T04:43:02.671Z,9.93
2023-04-17T04:48:02.743Z,9.79
2023-04-17T04:53:02.547Z,9.93
2023-04-17T04:58:02.557Z,9.89
2023-04-17T05:03:02.707Z,9.88
2023-04-17T05:08:02.872Z,9.79
2023-04-17T05:13:02.290Z,10.09
2023-04-17T05:18:02.361Z,9.97
2023-04-17T05:23:02.220Z,10.01
2023-04-17T05:28:05.175Z,9.86
2023-04-17T05:33:02.255Z,9.63
2023-04-17T05:38:02.081Z,9.66
2023-04-17T05:43:01.949Z,9.46
2023-04-17T05:48:01.959Z,9.67
2023-04-17T05:53:01.791Z,9.71
2023-04-17T05:58:10.522Z,9.34
2023-04-17T06:03:02.987Z,9.61
2023-04-17T06:08:01.614Z,9.93
2023-04-17T06:13:01.668Z,10.12
2023-04-17T06:18:01.500Z,10.18
2023-04-17T06:23:01.374Z,10.32
2023-04-17T06:28:04.402Z,10.25
2023-04-17T06:33:01.312Z,10.21
2023-04-17T06:38:01.509Z,9.99
2023-04-17T06:43:01.170Z,9.97
2023-04-17T06:48:01.160Z,10.30
2023-04-17T06:53:00.976Z,9.89
2023-04-17T06:58:01.003Z,10.32
2023-04-17T07:03:01.271Z,10.14
2023-04-17T07:08:00.834Z,9.93
2023-04-17T07:13:00.813Z,10.10
2023-04-17T07:18:01.231Z,10.51
2023-04-17T07:23:00.621Z,10.32
2023-04-17T07:28:04.602Z,10.39
2023-04-17T07:33:00.524Z,10.03
2023-04-17T07:38:00.498Z,9.73
2023-04-17T07:43:00.298Z,9.85
2023-04-17T07:48:00.344Z,10.14
2023-04-17T07:53:00.327Z,10.12
2023-04-17T07:58:00.262Z,9.56
2023-04-17T08:03:00.469Z,9.89
2023-04-17T08:08:00.390Z,9.83
2023-04-17T08:12:59.968Z,9.83
2023-04-17T08:18:00.031Z,9.64
2023-04-17T08:22:59.783Z,10.12
2023-04-17T08:28:03.474Z,10.09
2023-04-17T08:32:59.713Z,10.46
2023-04-17T08:37:59.638Z,10.55
2023-04-17T08:42:59.532Z,10.60
2023-04-17T08:47:59.654Z,10.47
2023-04-17T08:52:59.433Z,10.21
2023-04-17T08:57:59.395Z,10.34
2023-04-17T09:02:59.414Z,10.22
2023-04-17T09:07:59.414Z,10.18
2023-04-17T09:12:59.307Z,10.71
2023-04-17T09:17:59.227Z,10.74
2023-04-17T09:22:59.024Z,10.47
2023-04-17T09:28:02.071Z,10.80
2023-04-17T09:32:58.981Z,10.26
2023-04-17T09:37:58.919Z,11.02
2023-04-17T09:42:58.834Z,11.41
2023-04-17T09:47:58.780Z,11.43
2023-04-17T09:52:58.654Z,11.83
2023-04-17T09:57:58.596Z,11.43
2023-04-17T10:02:58.782Z,11.90
2023-04-17T10:07:58.601Z,12.44
2023-04-17T10:12:58.493Z,11.54
2023-04-17T10:17:58.512Z,12.23
2023-04-17T10:22:58.338Z,13.69
2023-04-17T10:28:01.303Z,12.77
2023-04-17T10:32:58.109Z,11.93
2023-04-17T10:37:58.147Z,11.89
2023-04-17T10:42:57.978Z,11.72
2023-04-17T10:47:58.026Z,11.86
2023-04-17T10:52:57.821Z,12.45
2023-04-17T10:57:57.784Z,13.38
2023-04-17T11:02:57.872Z,13.63
2023-04-17T11:07:57.828Z,12.87
2023-04-17T11:12:57.578Z,13.06
2023-04-17T11:17:57.595Z,12.27
2023-04-17T11:22:57.474Z,13.18
2023-04-17T11:28:00.406Z,13.03
2023-04-17T11:32:57.337Z,12.96
2023-04-17T11:37:57.719Z,13.79
2023-04-17T11:42:57.216Z,13.09
2023-04-17T11:47:57.306Z,13.47
2023-04-17T11:52:57.069Z,13.74
2023-04-17T11:57:57.071Z,13.52
2023-04-17T12:02:57.103Z,12.78
2023-04-17T12:07:56.880Z,14.20
2023-04-17T12:12:56.772Z,14.49
2023-04-17T12:17:56.840Z,13.49
2023-04-17T12:22:56.743Z,13.33
2023-04-17T12:27:59.773Z,13.70
2023-04-17T12:32:56.691Z,13.36
2023-04-17T12:37:56.506Z,14.49
2023-04-17T12:42:56.398Z,14.44
2023-04-17T12:47:56.442Z,13.24
2023-04-17T12:52:56.367Z,12.69
2023-04-17T12:57:56.275Z,13.18
2023-04-17T13:02:56.334Z,13.41
2023-04-17T13:07:56.156Z,13.55
2023-04-17T13:12:56.078Z,13.99
2023-04-17T13:17:55.993Z,14.60
2023-04-17T13:22:57.784Z,13.92
2023-04-17T13:27:58.870Z,14.32
2023-04-17T13:32:55.781Z,13.71
2023-04-17T13:37:55.793Z,13.81
2023-04-17T13:42:55.641Z,13.94
2023-04-17T13:47:55.715Z,13.77
2023-04-17T13:52:55.513Z,13.65
2023-04-17T13:57:55.571Z,13.89
2023-04-17T14:02:55.662Z,13.92
2023-04-17T14:07:55.348Z,13.55
2023-04-17T14:12:55.212Z,13.77
2023-04-17T14:17:55.571Z,13.92
2023-04-17T14:22:55.125Z,15.30
2023-04-17T14:27:58.225Z,15.17
2023-04-17T14:32:54.999Z,14.68
2023-04-17T14:37:55.036Z,13.94
2023-04-17T14:42:55.029Z,13.98
2023-04-17T14:47:54.858Z,14.78
2023-04-17T14:52:54.797Z,14.71
2023-04-17T14:57:54.749Z,14.14
2023-04-17T15:02:54.756Z,13.98
2023-04-17T15:07:55.020Z,14.16
2023-04-17T15:12:54.425Z,13.79
2023-04-17T15:17:54.450Z,14.01
2023-04-17T15:22:54.339Z,14.57
2023-04-17T15:27:57.416Z,14.88
2023-04-17T15:32:54.313Z,14.42
2023-04-17T15:37:54.175Z,14.57
2023-04-17T15:42:54.109Z,14.19
2023-04-17T15:47:54.085Z,14.37
2023-04-17T15:52:54.027Z,14.28
2023-04-17T15:57:53.990Z,13.94
2023-04-17T16:02:53.878Z,13.98
2023-04-17T16:07:53.793Z,14.34
2023-04-17T16:12:53.661Z,13.91
2023-04-17T16:17:53.725Z,14.14
2023-04-17T16:22:53.672Z,14.34
2023-04-17T16:27:56.512Z,14.04
2023-04-17T16:32:53.398Z,14.14
2023-04-17T16:37:53.409Z,14.21
2023-04-17T16:42:53.266Z,13.89
2023-04-17T16:47:53.602Z,13.56
2023-04-17T16:52:53.122Z,13.54
2023-04-17T16:57:53.148Z,13.24
2023-04-17T17:02:53.077Z,13.29
2023-04-17T17:07:53.002Z,13.29
2023-04-17T17:12:52.945Z,13.51
2023-04-17T17:17:52.945Z,13.18
2023-04-17T17:22:52.803Z,13.51
2023-04-17T17:27:55.762Z,13.30
2023-04-17T17:32:52.771Z,12.64
2023-04-17T17:37:52.584Z,12.78
2023-04-17T17:42:52.484Z,12.49
2023-04-17T17:47:52.566Z,12.33
2023-04-17T17:52:52.328Z,12.31
2023-04-17T17:57:52.340Z,12.08
2023-04-17T18:02:52.407Z,12.12
2023-04-17T18:07:52.222Z,11.85
2023-04-17T18:12:52.173Z,11.57
2023-04-17T18:17:52.273Z,11.28
2023-04-17T18:22:52.006Z,11.21
2023-04-17T18:27:54.939Z,10.96
2023-04-17T18:32:52.038Z,10.74
2023-04-17T18:37:51.850Z,10.94
2023-04-17T18:42:51.716Z,11.16
2023-04-17T18:47:51.779Z,10.99
2023-04-17T18:52:51.618Z,11.24
2023-04-17T18:57:51.625Z,11.44
2023-04-17T19:02:51.594Z,11.64
2023-04-17T19:07:51.450Z,11.34
2023-04-17T19:12:51.361Z,11.13
2023-04-17T19:17:51.310Z,11.36
2023-04-17T19:22:51.252Z,11.25
2023-04-17T19:27:54.192Z,11.35
2023-04-17T19:32:51.124Z,10.94
2023-04-17T19:37:51.050Z,11.13
2023-04-17T19:42:50.987Z,11.16
2023-04-17T19:47:51.040Z,11.03
2023-04-17T19:52:50.833Z,11.44
2023-04-17T19:57:51.022Z,11.36
2023-04-17T20:02:50.856Z,11.03
2023-04-17T20:07:50.744Z,10.81
2023-04-17T20:12:50.534Z,10.62
2023-04-17T20:17:50.585Z,10.83
2023-04-17T20:22:50.446Z,10.51
2023-04-17T20:27:53.544Z,10.52
2023-04-17T20:32:50.345Z,10.42
2023-04-17T20:37:50.241Z,10.51
2023-04-17T20:42:50.327Z,10.56
2023-04-17T20:52:50.009Z,10.44
2023-04-17T20:57:50.040Z,10.42
2023-04-17T21:02:49.943Z,10.34
2023-04-17T21:07:51.524Z,10.30
2023-04-17T21:12:49.848Z,10.39
2023-04-17T21:17:49.873Z,10.09
2023-04-17T21:22:49.621Z,10.24
2023-04-17T21:27:52.660Z,10.25
2023-04-17T21:32:49.524Z,10.00
2023-04-17T21:37:49.514Z,10.32
2023-04-17T21:42:49.362Z,10.59
2023-04-17T21:47:49.434Z,10.63
2023-04-17T21:52:49.210Z,10.32
2023-04-17T21:57:49.262Z,10.33
2023-04-17T22:02:49.248Z,10.07
2023-04-17T22:07:54.958Z,9.76
2023-04-17T22:12:49.992Z,9.79
2023-04-17T22:17:48.975Z,9.79
2023-04-17T22:22:48.903Z,9.45
2023-04-17T22:27:51.848Z,9.25
2023-04-17T22:32:48.750Z,9.10
2023-04-17T22:37:48.799Z,9.30
2023-04-17T22:42:48.548Z,9.06
2023-04-17T22:47:48.610Z,9.32
2023-04-17T22:52:48.500Z,9.27
2023-04-17T22:57:48.483Z,9.53
2023-04-17T23:02:48.454Z,9.49
2023-04-17T23:07:48.322Z,9.35
2023-04-17T23:12:48.173Z,9.21
2023-04-17T23:17:48.785Z,9.09
2023-04-17T23:22:48.207Z,9.06
2023-04-17T23:27:51.203Z,9.48
2023-04-17T23:32:48.080Z,9.05
2023-04-17T23:37:48.257Z,9.12
2023-04-17T23:42:48.431Z,9.35
2023-04-17T23:47:47.949Z,9.10
2023-04-17T23:52:47.750Z,9.39
2023-04-17T23:57:47.769Z,9.64
